Time;durP1;ratioP1;P1;durP2;ratioP2;P2;SDS_P1;SDS_P2;PMS_P1;PMS_P2;Temp;Humidity;BMP_temperature;BMP_pressure;BME280_temperature;BME280_humidity;BME280_pressure;Samples;Min_cycle;Max_cycle;Signal;HPM_P1;HPM_P2
2023/09/17 00:00:59;;;;;;;21.77;18.33;;;;;;;;;;5108238;28;20039;-74
2023/09/17 00:03:25;;;;;;;18.75;16.77;;;;;;;;;;5113105;28;20364;-74
2023/09/17 00:05:51;;;;;;;20.98;18.35;;;;;;;;;;5113054;28;20042;-74
2023/09/17 00:08:18;;;;;;;19.45;17.20;;;;;;;;;;5112649;28;20044;-74
2023/09/17 00:10:45;;;;;;;19.52;16.45;;;;;;;;;;5110345;28;20061;-74
2023/09/17 00:13:12;;;;;;;20.83;18.23;;;;;;;;;;5111523;28;20343;-74
2023/09/17 00:15:38;;;;;;;22.20;17.55;;;;;;;;;;5095053;28;20098;-74
2023/09/17 00:18:04;;;;;;;21.17;18.00;;;;;;;;;;5103769;28;20089;-74
2023/09/17 00:20:30;;;;;;;21.10;17.73;;;;;;;;;;5109255;28;20118;-74
2023/09/17 00:22:56;;;;;;;21.60;18.30;;;;;;;;;;5093647;28;20501;-74
2023/09/17 00:25:22;;;;;;;20.58;17.33;;;;;;;;;;5109944;28;20475;-74
2023/09/17 00:27:48;;;;;;;20.23;15.90;;;;;;;;;;5112256;28;20073;-74
2023/09/17 00:30:15;;;;;;;15.88;14.27;;;;;;;;;;5108892;28;20037;-74
2023/09/17 00:32:41;;;;;;;18.27;15.98;;;;;;;;;;5103333;28;20048;-74
2023/09/17 00:35:07;;;;;;;20.13;16.50;;;;;;;;;;5112620;28;20051;-74
2023/09/17 00:37:33;;;;;;;17.40;14.30;;;;;;;;;;5103324;28;20503;-74
2023/09/17 00:39:59;;;;;;;20.10;17.17;;;;;;;;;;5126609;28;20043;-74
2023/09/17 00:42:25;;;;;;;19.15;16.48;;;;;;;;;;5107322;28;20089;-74
2023/09/17 00:44:51;;;;;;;18.70;16.70;;;;;;;;;;5112198;28;20042;-74
2023/09/17 00:47:17;;;;;;;19.98;17.88;;;;;;;;;;5116592;28;20123;-74
2023/09/17 00:49:43;;;;;;;20.23;17.98;;;;;;;;;;5115935;28;20100;-74
2023/09/17 00:52:20;;;;;;;20.42;18.10;;;;;;;;;;5116251;28;20116;-74
2023/09/17 00:54:48;;;;;;;21.20;18.00;;;;;;;;;;5112970;28;20067;-75
2023/09/17 00:57:17;;;;;;;22.30;19.52;;;;;;;;;;5109157;28;20063;-74
2023/09/17 00:59:47;;;;;;;20.45;17.63;;;;;;;;;;5115476;28;20047;-74
2023/09/17 01:02:13;;;;;;;19.92;17.83;;;;;;;;;;5103448;28;20048;-74
2023/09/17 01:04:41;;;;;;;23.52;16.73;;;;;;;;;;5115646;28;20040;-74
2023/09/17 01:07:09;;;;;;;19.95;17.85;;;;;;;;;;5102481;28;20135;-74
2023/09/17 01:09:36;;;;;;;19.98;17.77;;;;;;;;;;5111683;28;20120;-74
2023/09/17 01:12:02;;;;;;;34.58;19.48;;;;;;;;;;5102264;28;20039;-74
2023/09/17 01:14:28;;;;;;;19.70;17.65;;;;;;;;;;5096384;28;20051;-74
2023/09/17 01:16:56;;;;;;;18.33;16.42;;;;;;;;;;5109764;27;20150;-74
2023/09/17 01:19:23;;;;;;;20.13;17.35;;;;;;;;;;5106443;28;20051;-74
2023/09/17 01:21:52;;;;;;;18.02;16.13;;;;;;;;;;5115942;27;20051;-74
2023/09/17 01:24:25;;;;;;;17.58;15.85;;;;;;;;;;5115769;28;20116;-74
2023/09/17 01:26:59;;;;;;;17.90;15.82;;;;;;;;;;5114295;28;20494;-74
2023/09/17 01:29:26;;;;;;;109.35;19.35;;;;;;;;;;5115740;28;20046;-74
2023/09/17 01:31:55;;;;;;;123.40;19.23;;;;;;;;;;5115516;27;20399;-74
2023/09/17 01:34:22;;;;;;;159.70;18.88;;;;;;;;;;5097030;28;20048;-74
2023/09/17 01:36:49;;;;;;;23.50;13.82;;;;;;;;;;5098131;28;20051;-74
2023/09/17 01:39:19;;;;;;;20.73;17.25;;;;;;;;;;5106546;28;20036;-74
2023/09/17 01:41:46;;;;;;;25.17;15.27;;;;;;;;;;5113191;28;20046;-74
2023/09/17 01:44:12;;;;;;;89.45;19.25;;;;;;;;;;5115760;28;20093;-74
2023/09/17 01:46:40;;;;;;;35.58;21.10;;;;;;;;;;5115361;28;20042;-74
2023/09/17 01:49:10;;;;;;;79.55;23.63;;;;;;;;;;5109745;28;20043;-74
2023/09/17 01:51:36;;;;;;;45.90;22.45;;;;;;;;;;5106254;28;20041;-74
2023/09/17 01:54:03;;;;;;;38.28;23.70;;;;;;;;;;5108036;28;20058;-74
2023/09/17 01:56:29;;;;;;;32.83;24.05;;;;;;;;;;5112900;28;20387;-74
2023/09/17 01:58:55;;;;;;;37.85;26.73;;;;;;;;;;5099447;28;20491;-74
2023/09/17 02:01:21;;;;;;;29.17;23.73;;;;;;;;;;5102536;28;20471;-74
2023/09/17 02:03:49;;;;;;;36.08;26.67;;;;;;;;;;5115386;27;20043;-74
2023/09/17 02:06:15;;;;;;;35.10;26.55;;;;;;;;;;5109099;28;20115;-74
2023/09/17 02:08:41;;;;;;;42.42;29.50;;;;;;;;;;5109257;28;20032;-74
2023/09/17 02:11:07;;;;;;;38.58;27.88;;;;;;;;;;5108942;28;20036;-74
2023/09/17 02:13:33;;;;;;;40.72;29.95;;;;;;;;;;5109133;28;20058;-74
2023/09/17 02:15:59;;;;;;;37.63;29.33;;;;;;;;;;5108460;28;20036;-74
2023/09/17 02:18:26;;;;;;;44.10;32.47;;;;;;;;;;5127993;27;20044;-74
2023/09/17 02:20:52;;;;;;;40.80;29.92;;;;;;;;;;5094491;28;20051;-74
2023/09/17 02:23:18;;;;;;;38.33;29.08;;;;;;;;;;5108756;28;20127;-74
2023/09/17 02:25:45;;;;;;;40.08;29.13;;;;;;;;;;5106913;28;20051;-74
2023/09/17 02:28:11;;;;;;;40.03;29.33;;;;;;;;;;5094914;28;20052;-74
2023/09/17 02:30:37;;;;;;;39.13;29.35;;;;;;;;;;5112662;28;20039;-74
2023/09/17 02:33:03;;;;;;;46.40;32.75;;;;;;;;;;5114464;28;20059;-74
2023/09/17 02:35:29;;;;;;;44.08;33.03;;;;;;;;;;5113057;28;20078;-74
2023/09/17 02:37:55;;;;;;;46.75;34.75;;;;;;;;;;5107778;28;20079;-74
2023/09/17 02:40:24;;;;;;;49.70;34.70;;;;;;;;;;5113276;28;20452;-74
2023/09/17 02:42:50;;;;;;;48.55;34.05;;;;;;;;;;5111817;28;20071;-74
2023/09/17 02:45:18;;;;;;;45.33;34.47;;;;;;;;;;5109005;28;20396;-74
2023/09/17 02:47:44;;;;;;;44.42;32.75;;;;;;;;;;5109607;28;20043;-74
2023/09/17 02:50:10;;;;;;;45.15;33.72;;;;;;;;;;5113202;28;20032;-74
2023/09/17 02:52:36;;;;;;;49.05;36.13;;;;;;;;;;5111808;28;20130;-74
2023/09/17 02:55:04;;;;;;;48.05;34.10;;;;;;;;;;5101474;28;20078;-74
2023/09/17 02:57:31;;;;;;;48.10;34.80;;;;;;;;;;5114060;28;20104;-74
2023/09/17 02:59:57;;;;;;;46.25;33.30;;;;;;;;;;5111668;28;20492;-74
2023/09/17 03:02:23;;;;;;;40.63;30.95;;;;;;;;;;5113640;28;20444;-75
2023/09/17 03:04:52;;;;;;;39.85;30.30;;;;;;;;;;5113950;27;20066;-74
2023/09/17 03:07:18;;;;;;;35.97;28.08;;;;;;;;;;5110154;28;20427;-74
2023/09/17 03:09:45;;;;;;;39.22;30.15;;;;;;;;;;5102491;28;20096;-74
2023/09/17 03:12:11;;;;;;;37.33;30.63;;;;;;;;;;5114011;28;20039;-74
2023/09/17 03:14:38;;;;;;;37.97;29.60;;;;;;;;;;5104139;28;20410;-74
2023/09/17 03:17:05;;;;;;;43.25;31.40;;;;;;;;;;5112478;28;20047;-74
2023/09/17 03:19:31;;;;;;;40.40;30.15;;;;;;;;;;5113874;28;20047;-74
2023/09/17 03:21:57;;;;;;;35.45;28.25;;;;;;;;;;5109996;28;20147;-74
2023/09/17 03:24:23;;;;;;;31.88;25.90;;;;;;;;;;5093713;28;20047;-74
2023/09/17 03:26:51;;;;;;;35.88;28.52;;;;;;;;;;5109976;28;20074;-74
2023/09/17 03:29:17;;;;;;;36.92;27.83;;;;;;;;;;5109981;28;20050;-74
2023/09/17 03:31:45;;;;;;;34.65;27.10;;;;;;;;;;5110574;28;20044;-74
2023/09/17 03:34:11;;;;;;;40.25;30.77;;;;;;;;;;5112739;28;20087;-74
2023/09/17 03:36:37;;;;;;;43.95;31.70;;;;;;;;;;5096258;28;20048;-74
2023/09/17 03:39:07;;;;;;;38.25;30.65;;;;;;;;;;5098414;28;20101;-74
2023/09/17 03:41:33;;;;;;;33.40;27.55;;;;;;;;;;5108555;28;20528;-74
2023/09/17 03:43:59;;;;;;;34.25;26.90;;;;;;;;;;5112624;28;20556;-74
2023/09/17 03:46:25;;;;;;;36.53;28.83;;;;;;;;;;5113133;28;20468;-74
2023/09/17 03:48:51;;;;;;;33.00;26.02;;;;;;;;;;5113501;28;20044;-74
2023/09/17 03:51:17;;;;;;;40.95;30.40;;;;;;;;;;5098210;28;20108;-74
2023/09/17 03:53:43;;;;;;;41.28;30.77;;;;;;;;;;5103281;28;20051;-74
2023/09/17 03:56:12;;;;;;;44.50;33.15;;;;;;;;;;5100646;28;20118;-74
2023/09/17 03:58:38;;;;;;;46.17;33.40;;;;;;;;;;5114992;28;20047;-74
2023/09/17 04:01:06;;;;;;;43.08;33.42;;;;;;;;;;5102314;28;20036;-74
2023/09/17 04:03:32;;;;;;;40.05;30.35;;;;;;;;;;5113428;28;20044;-74
2023/09/17 04:05:58;;;;;;;36.25;29.42;;;;;;;;;;5111619;28;20043;-74
2023/09/17 04:08:24;;;;;;;43.38;33.30;;;;;;;;;;5105381;28;20123;-74
2023/09/17 04:10:57;;;;;;;39.65;30.80;;;;;;;;;;5082418;28;20435;-74
2023/09/17 04:13:23;;;;;;;40.97;31.40;;;;;;;;;;5112953;28;20050;-74
2023/09/17 04:15:50;;;;;;;36.05;28.42;;;;;;;;;;5113189;28;20031;-74
2023/09/17 04:18:16;;;;;;;36.55;28.65;;;;;;;;;;5108142;28;20119;-74
2023/09/17 04:20:42;;;;;;;35.83;30.15;;;;;;;;;;5103038;28;20079;-74
2023/09/17 04:23:09;;;;;;;36.85;29.05;;;;;;;;;;5112143;28;20048;-74
2023/09/17 04:25:35;;;;;;;43.28;32.10;;;;;;;;;;5114342;28;20417;-74
2023/09/17 04:28:04;;;;;;;38.13;30.60;;;;;;;;;;5117267;28;20050;-74
2023/09/17 04:30:30;;;;;;;40.15;29.83;;;;;;;;;;5113862;28;20052;-74
2023/09/17 04:32:57;;;;;;;35.10;27.73;;;;;;;;;;5095327;28;20105;-74
2023/09/17 04:35:24;;;;;;;37.40;28.65;;;;;;;;;;5103800;28;20044;-74
2023/09/17 04:37:50;;;;;;;37.45;29.65;;;;;;;;;;5109517;28;20051;-75
2023/09/17 04:40:18;;;;;;;36.55;28.30;;;;;;;;;;5115833;27;20036;-75
2023/09/17 04:42:46;;;;;;;35.30;28.45;;;;;;;;;;5114476;28;20391;-74
2023/09/17 04:45:12;;;;;;;40.03;30.48;;;;;;;;;;5116392;28;20039;-74
2023/09/17 04:47:39;;;;;;;42.10;31.35;;;;;;;;;;5116740;28;20036;-74
2023/09/17 04:50:12;;;;;;;40.58;32.58;;;;;;;;;;5111591;28;20087;-74
2023/09/17 04:52:38;;;;;;;41.17;32.72;;;;;;;;;;5113663;28;20039;-74
2023/09/17 04:55:05;;;;;;;41.55;31.77;;;;;;;;;;5115541;28;20075;-74
2023/09/17 04:57:31;;;;;;;40.67;32.30;;;;;;;;;;5116546;28;20051;-74
2023/09/17 04:59:57;;;;;;;43.95;32.85;;;;;;;;;;5116383;28;20399;-74
2023/09/17 05:02:24;;;;;;;42.75;32.83;;;;;;;;;;5103135;28;20036;-74
2023/09/17 05:04:50;;;;;;;41.97;32.38;;;;;;;;;;5114262;28;20051;-74
2023/09/17 05:07:16;;;;;;;40.13;31.15;;;;;;;;;;5102531;28;20506;-74
2023/09/17 05:09:42;;;;;;;42.03;32.15;;;;;;;;;;5102561;28;20044;-74
2023/09/17 05:12:08;;;;;;;36.33;28.55;;;;;;;;;;5111103;28;20044;-74
2023/09/17 05:14:35;;;;;;;38.17;29.23;;;;;;;;;;5105267;28;20396;-74
2023/09/17 05:17:01;;;;;;;43.63;32.33;;;;;;;;;;5111620;28;20459;-74
2023/09/17 05:19:27;;;;;;;42.25;32.13;;;;;;;;;;5114552;28;20048;-74
2023/09/17 05:21:53;;;;;;;36.92;30.52;;;;;;;;;;5113741;28;20112;-75
2023/09/17 05:24:20;;;;;;;39.67;32.10;;;;;;;;;;5100125;28;20044;-75
2023/09/17 05:26:46;;;;;;;42.95;32.88;;;;;;;;;;5109796;28;20431;-74
2023/09/17 05:29:15;;;;;;;43.17;32.80;;;;;;;;;;5112590;28;20435;-75
2023/09/17 05:31:41;;;;;;;40.00;31.45;;;;;;;;;;5115927;28;20128;-75
2023/09/17 05:34:07;;;;;;;41.75;32.20;;;;;;;;;;5105817;28;20054;-75
2023/09/17 05:36:33;;;;;;;41.55;31.50;;;;;;;;;;5097428;28;20047;-75
2023/09/17 05:39:00;;;;;;;41.70;32.63;;;;;;;;;;5104713;28;20075;-74
2023/09/17 05:41:26;;;;;;;40.67;31.35;;;;;;;;;;5115728;28;20043;-74
2023/09/17 05:43:52;;;;;;;43.05;33.92;;;;;;;;;;5114852;28;20040;-74
2023/09/17 05:46:18;;;;;;;45.55;33.90;;;;;;;;;;5115153;28;20126;-75
2023/09/17 05:48:44;;;;;;;46.13;34.15;;;;;;;;;;5107934;28;20044;-80
2023/09/17 05:51:10;;;;;;;41.17;31.77;;;;;;;;;;5106996;28;20036;-75
2023/09/17 05:53:36;;;;;;;44.95;32.67;;;;;;;;;;5115443;28;20044;-76
2023/09/17 05:56:04;;;;;;;43.97;33.55;;;;;;;;;;5106563;28;20411;-75
2023/09/17 05:58:30;;;;;;;44.58;33.97;;;;;;;;;;5104893;28;20040;-75
2023/09/17 06:00:56;;;;;;;45.17;33.22;;;;;;;;;;5094734;28;20082;-75
2023/09/17 06:03:23;;;;;;;42.35;32.63;;;;;;;;;;5100795;28;20044;-75
2023/09/17 06:05:49;;;;;;;41.60;32.53;;;;;;;;;;5103723;28;20050;-76
2023/09/17 06:08:15;;;;;;;43.92;32.05;;;;;;;;;;5112276;28;20043;-75
2023/09/17 06:10:41;;;;;;;42.40;33.03;;;;;;;;;;5105599;27;20043;-75
2023/09/17 06:13:07;;;;;;;43.15;32.05;;;;;;;;;;5114962;28;20204;-75
2023/09/17 06:15:33;;;;;;;44.45;33.72;;;;;;;;;;5111835;28;20475;-75
2023/09/17 06:18:00;;;;;;;43.88;32.63;;;;;;;;;;5104446;28;20047;-75
2023/09/17 06:20:27;;;;;;;45.10;33.22;;;;;;;;;;5116417;27;20035;-75
2023/09/17 06:22:53;;;;;;;47.30;33.67;;;;;;;;;;5114970;28;20044;-75
2023/09/17 06:25:19;;;;;;;42.92;33.38;;;;;;;;;;5109152;28;20047;-75
2023/09/17 06:27:45;;;;;;;50.00;35.40;;;;;;;;;;5114320;28;20051;-75
2023/09/17 06:30:13;;;;;;;46.35;36.03;;;;;;;;;;5113482;28;20039;-75
2023/09/17 06:32:39;;;;;;;49.38;36.00;;;;;;;;;;5113730;28;20052;-75
2023/09/17 06:35:05;;;;;;;49.42;35.92;;;;;;;;;;5109146;28;20387;-75
2023/09/17 06:37:31;;;;;;;45.60;34.95;;;;;;;;;;5106527;28;20103;-75
2023/09/17 06:39:57;;;;;;;50.67;38.00;;;;;;;;;;5108138;27;20059;-75
2023/09/17 06:42:23;;;;;;;52.95;37.60;;;;;;;;;;5095971;28;20097;-75
2023/09/17 06:44:49;;;;;;;51.45;37.33;;;;;;;;;;5103791;28;20104;-75
2023/09/17 06:47:15;;;;;;;47.03;35.90;;;;;;;;;;5112638;28;20176;-75
2023/09/17 06:49:42;;;;;;;46.75;35.47;;;;;;;;;;5100925;28;20122;-75
2023/09/17 06:52:08;;;;;;;45.55;34.97;;;;;;;;;;5111442;28;20102;-75
2023/09/17 06:54:34;;;;;;;45.72;34.78;;;;;;;;;;5094847;28;20044;-75
2023/09/17 06:57:01;;;;;;;39.15;31.70;;;;;;;;;;5103225;28;20522;-76
2023/09/17 06:59:28;;;;;;;41.00;31.33;;;;;;;;;;5105237;28;20161;-76
2023/09/17 07:01:54;;;;;;;43.22;32.75;;;;;;;;;;5113592;28;20502;-76
2023/09/17 07:04:20;;;;;;;38.72;31.33;;;;;;;;;;5100961;28;20486;-76
2023/09/17 07:06:46;;;;;;;40.00;31.95;;;;;;;;;;5103437;28;20048;-80
2023/09/17 07:09:13;;;;;;;35.78;30.67;;;;;;;;;;5109728;27;20073;-75
2023/09/17 07:11:39;;;;;;;36.72;30.67;;;;;;;;;;5100944;28;20040;-75
2023/09/17 07:14:09;;;;;;;34.70;30.52;;;;;;;;;;5098595;28;20038;-77
2023/09/17 07:16:41;;;;;;;36.47;29.50;;;;;;;;;;5096276;28;20093;-78
2023/09/17 07:19:07;;;;;;;34.00;28.52;;;;;;;;;;5095795;28;20048;-77
2023/09/17 07:21:33;;;;;;;30.40;26.50;;;;;;;;;;5094510;28;20082;-76
2023/09/17 07:23:59;;;;;;;30.83;26.27;;;;;;;;;;5098171;28;20063;-77
2023/09/17 07:26:25;;;;;;;30.42;25.95;;;;;;;;;;5104643;28;20127;-77
2023/09/17 07:28:51;;;;;;;29.67;25.00;;;;;;;;;;5103458;28;20088;-78
2023/09/17 07:31:17;;;;;;;31.98;25.40;;;;;;;;;;5109949;28;20039;-77
2023/09/17 07:33:44;;;;;;;29.08;24.00;;;;;;;;;;5105306;28;20039;-77
2023/09/17 07:36:11;;;;;;;29.98;24.88;;;;;;;;;;5105686;28;20092;-77
2023/09/17 07:38:37;;;;;;;29.55;24.73;;;;;;;;;;5107843;27;20063;-78
2023/09/17 07:41:03;;;;;;;29.58;23.30;;;;;;;;;;5107030;28;20140;-82
2023/09/17 07:43:29;;;;;;;30.30;25.58;;;;;;;;;;5098977;28;20497;-77
2023/09/17 07:45:55;;;;;;;27.38;24.23;;;;;;;;;;5106282;28;20056;-77
2023/09/17 07:48:23;;;;;;;28.10;24.05;;;;;;;;;;5106328;28;20043;-77
2023/09/17 07:50:59;;;;;;;28.48;23.83;;;;;;;;;;5109333;28;20040;-77
2023/09/17 07:53:26;;;;;;;29.67;24.45;;;;;;;;;;5101046;28;20040;-77
2023/09/17 07:55:52;;;;;;;27.65;23.85;;;;;;;;;;5113528;28;20124;-77
2023/09/17 07:58:18;;;;;;;25.52;22.92;;;;;;;;;;5113490;28;20479;-77
2023/09/17 08:00:45;;;;;;;27.38;23.45;;;;;;;;;;5099295;28;20425;-77
2023/09/17 08:03:14;;;;;;;27.98;24.55;;;;;;;;;;5104684;28;20048;-78
2023/09/17 08:05:41;;;;;;;28.38;25.30;;;;;;;;;;5107957;28;20089;-77
2023/09/17 08:08:07;;;;;;;29.80;24.83;;;;;;;;;;5112772;28;20466;-77
2023/09/17 08:10:34;;;;;;;27.10;24.17;;;;;;;;;;5113150;28;20036;-77
2023/09/17 08:13:00;;;;;;;28.48;24.13;;;;;;;;;;5113258;28;20196;-77
2023/09/17 08:15:27;;;;;;;24.27;21.38;;;;;;;;;;5112861;28;20402;-77
2023/09/17 08:17:53;;;;;;;25.35;21.85;;;;;;;;;;5112956;28;20152;-77
2023/09/17 08:20:20;;;;;;;21.42;19.13;;;;;;;;;;5111339;28;20058;-77
2023/09/17 08:22:46;;;;;;;21.02;18.75;;;;;;;;;;5112057;28;20049;-77
2023/09/17 08:25:12;;;;;;;21.10;18.90;;;;;;;;;;5112705;28;20079;-77
2023/09/17 08:27:39;;;;;;;22.55;18.20;;;;;;;;;;5112696;28;20052;-77
2023/09/17 08:30:11;;;;;;;22.20;19.90;;;;;;;;;;5101605;28;20606;-77
2023/09/17 08:32:38;;;;;;;20.52;18.33;;;;;;;;;;5104661;28;20472;-77
2023/09/17 08:35:06;;;;;;;21.58;19.30;;;;;;;;;;5096086;28;20047;-77
2023/09/17 08:37:33;;;;;;;20.30;18.30;;;;;;;;;;5113104;28;20060;-77
2023/09/17 08:39:59;;;;;;;21.92;18.98;;;;;;;;;;5102973;28;20044;-77
2023/09/17 08:42:27;;;;;;;19.88;17.75;;;;;;;;;;5095487;28;20109;-77
2023/09/17 08:44:56;;;;;;;21.15;18.95;;;;;;;;;;5108293;28;20046;-77
2023/09/17 08:47:22;;;;;;;20.80;17.83;;;;;;;;;;5109325;28;20054;-77
2023/09/17 08:49:48;;;;;;;19.80;17.27;;;;;;;;;;5105294;28;20113;-77
2023/09/17 08:52:16;;;;;;;19.88;17.85;;;;;;;;;;5112599;28;20123;-77
2023/09/17 08:54:44;;;;;;;19.10;17.23;;;;;;;;;;5108224;28;20047;-77
2023/09/17 08:57:11;;;;;;;20.23;17.38;;;;;;;;;;5104008;28;20047;-77
2023/09/17 08:59:49;;;;;;;18.50;16.50;;;;;;;;;;5112384;28;20118;-77
2023/09/17 09:02:22;;;;;;;19.73;17.67;;;;;;;;;;5099190;28;20044;-77
2023/09/17 09:04:50;;;;;;;19.30;17.33;;;;;;;;;;5114034;28;20466;-77
2023/09/17 09:07:18;;;;;;;19.75;17.70;;;;;;;;;;5115950;28;20044;-77
2023/09/17 09:09:46;;;;;;;21.48;19.23;;;;;;;;;;5115082;28;20062;-77
2023/09/17 09:12:12;;;;;;;21.92;19.63;;;;;;;;;;5114756;27;20046;-77
2023/09/17 09:14:40;;;;;;;20.58;18.38;;;;;;;;;;5108886;28;20179;-77
2023/09/17 09:17:06;;;;;;;20.48;18.20;;;;;;;;;;5099044;28;20176;-77
2023/09/17 09:19:32;;;;;;;19.73;17.50;;;;;;;;;;5110244;28;20052;-77
2023/09/17 09:21:58;;;;;;;19.08;17.08;;;;;;;;;;5109593;28;20125;-77
2023/09/17 09:24:24;;;;;;;19.92;17.27;;;;;;;;;;5115227;28;20038;-77
2023/09/17 09:26:50;;;;;;;20.27;18.10;;;;;;;;;;5113867;28;20415;-77
2023/09/17 09:29:16;;;;;;;20.60;18.45;;;;;;;;;;5109340;28;20043;-77
2023/09/17 09:31:42;;;;;;;21.15;18.92;;;;;;;;;;5097122;28;20048;-77
2023/09/17 09:34:08;;;;;;;20.75;18.65;;;;;;;;;;5106995;28;20509;-77
2023/09/17 09:36:36;;;;;;;22.00;19.40;;;;;;;;;;5097655;28;20051;-77
2023/09/17 09:39:02;;;;;;;21.48;19.23;;;;;;;;;;5109799;28;20063;-78
2023/09/17 09:41:32;;;;;;;22.05;19.70;;;;;;;;;;5103818;28;20114;-78
2023/09/17 09:43:59;;;;;;;22.40;19.15;;;;;;;;;;5112479;28;20047;-77
2023/09/17 09:46:26;;;;;;;23.25;20.95;;;;;;;;;;5109535;27;20104;-78
2023/09/17 09:48:52;;;;;;;26.38;22.10;;;;;;;;;;5108863;28;20044;-78
2023/09/17 09:51:21;;;;;;;23.75;21.30;;;;;;;;;;5103935;28;20067;-78
2023/09/17 09:53:48;;;;;;;24.05;20.98;;;;;;;;;;5094348;28;20039;-77
2023/09/17 09:56:14;;;;;;;22.83;20.38;;;;;;;;;;5104041;28;20061;-76
2023/09/17 09:58:40;;;;;;;24.25;21.70;;;;;;;;;;5112336;28;20491;-76
2023/09/17 10:01:07;;;;;;;22.88;20.42;;;;;;;;;;5109843;28;20035;-76
2023/09/17 10:03:33;;;;;;;23.83;20.30;;;;;;;;;;5104441;28;20131;-77
2023/09/17 10:06:09;;;;;;;24.80;20.73;;;;;;;;;;5111524;28;20039;-79
2023/09/17 10:08:35;;;;;;;;;;;;;;;;;;5115466;28;20531;-78
2023/09/17 10:11:03;;;;;;;23.60;20.40;;;;;;;;;;5105974;28;19989;-78
2023/09/17 10:13:29;;;;;;;24.45;21.83;;;;;;;;;;5106336;28;20399;-78
2023/09/17 10:15:55;;;;;;;25.80;23.00;;;;;;;;;;5105315;28;20184;-77
2023/09/17 10:18:23;;;;;;;29.55;22.63;;;;;;;;;;5107927;28;20479;-77
2023/09/17 10:20:51;;;;;;;25.40;22.45;;;;;;;;;;5094977;28;20516;-78
2023/09/17 10:23:17;;;;;;;28.13;23.20;;;;;;;;;;5112134;28;20081;-80
2023/09/17 10:25:44;;;;;;;24.73;21.23;;;;;;;;;;5114220;28;20491;-79
2023/09/17 10:28:11;;;;;;;28.65;23.25;;;;;;;;;;5102309;28;20058;-80
2023/09/17 10:30:38;;;;;;;29.52;22.98;;;;;;;;;;5110657;28;20052;-79
2023/09/17 10:33:07;;;;;;;30.60;24.52;;;;;;;;;;5109309;28;20039;-83
2023/09/17 10:35:34;;;;;;;37.20;26.85;;;;;;;;;;5099617;28;20052;-81
2023/09/17 10:38:03;;;;;;;29.58;23.80;;;;;;;;;;5096320;28;20475;-79
2023/09/17 10:40:29;;;;;;;27.42;21.27;;;;;;;;;;5105531;28;20391;-79
2023/09/17 10:42:58;;;;;;;19.50;16.02;;;;;;;;;;5111719;28;20082;-79
2023/09/17 10:45:24;;;;;;;18.90;16.42;;;;;;;;;;5095989;28;20123;-79
2023/09/17 10:47:51;;;;;;;17.55;13.70;;;;;;;;;;5103607;28;20073;-77
2023/09/17 10:50:18;;;;;;;11.55;10.02;;;;;;;;;;5105894;28;20047;-77
2023/09/17 10:52:45;;;;;;;12.50;11.20;;;;;;;;;;5115224;28;20115;-77
2023/09/17 10:55:11;;;;;;;12.85;11.60;;;;;;;;;;5112189;28;20048;-78
2023/09/17 10:57:45;;;;;;;15.68;14.07;;;;;;;;;;5101915;28;20185;-78
2023/09/17 11:00:18;;;;;;;18.95;15.40;;;;;;;;;;5098418;28;20075;-77
2023/09/17 11:02:50;;;;;;;18.85;16.88;;;;;;;;;;5112686;28;20513;-78
2023/09/17 11:05:17;;;;;;;20.45;16.50;;;;;;;;;;5113832;27;20044;-77
2023/09/17 11:07:44;;;;;;;20.58;17.15;;;;;;;;;;5113868;28;20039;-78
2023/09/17 11:10:14;;;;;;;21.17;18.63;;;;;;;;;;5111006;27;20055;-78
2023/09/17 11:12:41;;;;;;;19.02;17.00;;;;;;;;;;5100750;28;20039;-78
2023/09/17 11:15:07;;;;;;;17.55;15.68;;;;;;;;;;5114334;28;20069;-78
2023/09/17 11:17:34;;;;;;;14.25;12.77;;;;;;;;;;5114634;28;20039;-78
2023/09/17 11:20:00;;;;;;;16.02;14.38;;;;;;;;;;5103919;28;20043;-78
2023/09/17 11:22:35;;;;;;;15.90;14.27;;;;;;;;;;5099637;28;20036;-82
2023/09/17 11:25:03;;;;;;;16.42;14.77;;;;;;;;;;5082947;28;20044;-80
2023/09/17 11:27:44;;;;;;;17.52;15.48;;;;;;;;;;5093946;28;20116;-78
2023/09/17 11:30:15;;;;;;;19.95;17.92;;;;;;;;;;5097932;28;20043;-79
2023/09/17 11:32:50;;;;;;;22.33;18.55;;;;;;;;;;5115156;28;20047;-79
2023/09/17 11:35:16;;;;;;;22.70;18.80;;;;;;;;;;5112429;28;20062;-78
2023/09/17 11:37:42;;;;;;;21.25;18.33;;;;;;;;;;5108077;28;20047;-78
2023/09/17 11:40:10;;;;;;;23.65;18.77;;;;;;;;;;5098090;28;20036;-78
2023/09/17 11:42:37;;;;;;;19.65;16.85;;;;;;;;;;5113752;28;20047;-78
2023/09/17 11:45:03;;;;;;;18.98;17.10;;;;;;;;;;5093968;28;20063;-77
2023/09/17 11:47:29;;;;;;;21.73;18.55;;;;;;;;;;5093729;28;20065;-78
2023/09/17 11:49:56;;;;;;;20.63;18.02;;;;;;;;;;5093262;28;20040;-77
2023/09/17 11:52:24;;;;;;;24.50;18.55;;;;;;;;;;5099791;28;20043;-77
2023/09/17 11:54:52;;;;;;;24.17;18.98;;;;;;;;;;5106347;28;20052;-78
2023/09/17 11:57:25;;;;;;;28.80;21.77;;;;;;;;;;5113583;28;20055;-77
2023/09/17 11:59:51;;;;;;;25.33;20.10;;;;;;;;;;5107840;28;20051;-79
2023/09/17 12:02:18;;;;;;;25.83;21.35;;;;;;;;;;5094718;28;20048;-80
2023/09/17 12:04:45;;;;;;;25.73;21.08;;;;;;;;;;5094437;28;20051;-79
2023/09/17 12:07:12;;;;;;;31.42;22.60;;;;;;;;;;5107913;28;20048;-79
2023/09/17 12:12:13;;;;;;;26.52;21.70;;;;;;;;;;5111327;28;20052;-79
2023/09/17 12:14:39;;;;;;;32.20;28.38;;;;;;;;;;5114922;28;20048;-80
2023/09/17 12:17:05;;;;;;;23.42;20.13;;;;;;;;;;5102372;28;20088;-79
2023/09/17 12:19:31;;;;;;;20.92;18.70;;;;;;;;;;5095717;28;20085;-77
2023/09/17 12:21:59;;;;;;;23.85;18.80;;;;;;;;;;5108909;28;20039;-77
2023/09/17 12:24:29;;;;;;;21.75;18.73;;;;;;;;;;5107279;28;20379;-78
2023/09/17 12:27:09;;;;;;;21.58;19.15;;;;;;;;;;5091393;28;20056;-78
2023/09/17 12:29:38;;;;;;;19.95;17.85;;;;;;;;;;5101669;28;20044;-79
2023/09/17 12:32:04;;;;;;;21.10;18.52;;;;;;;;;;5111910;28;20039;-79
2023/09/17 12:34:31;;;;;;;22.15;18.23;;;;;;;;;;5106391;28;20047;-79
2023/09/17 12:36:57;;;;;;;22.73;19.45;;;;;;;;;;5107116;28;20059;-79
2023/09/17 12:39:23;;;;;;;20.98;18.75;;;;;;;;;;5094992;28;20097;-79
2023/09/17 12:41:49;;;;;;;21.45;19.23;;;;;;;;;;5116630;28;20447;-79
2023/09/17 12:44:15;;;;;;;21.45;18.60;;;;;;;;;;5099431;28;20043;-80
2023/09/17 12:46:42;;;;;;;23.05;18.67;;;;;;;;;;5119298;28;20044;-79
2023/09/17 12:49:08;;;;;;;20.45;17.27;;;;;;;;;;5120143;28;20039;-80
2023/09/17 12:51:35;;;;;;;20.80;16.30;;;;;;;;;;5119934;28;20048;-81
2023/09/17 12:54:01;;;;;;;18.08;15.98;;;;;;;;;;5120817;28;20462;-80
2023/09/17 12:56:30;;;;;;;21.50;17.13;;;;;;;;;;5120241;28;20525;-83
2023/09/17 12:59:00;;;;;;;20.55;17.55;;;;;;;;;;5104790;28;20210;-79
2023/09/17 13:01:27;;;;;;;20.33;17.08;;;;;;;;;;5107376;28;20555;-79
2023/09/17 13:04:04;;;;;;;20.33;17.58;;;;;;;;;;5105577;27;20067;-79
2023/09/17 13:06:33;;;;;;;22.25;17.88;;;;;;;;;;5120205;28;20102;-80
2023/09/17 13:08:59;;;;;;;22.75;17.65;;;;;;;;;;5107976;28;20819;-80
2023/09/17 13:11:26;;;;;;;23.65;19.60;;;;;;;;;;5118965;28;20042;-79
2023/09/17 13:13:53;;;;;;;18.33;16.25;;;;;;;;;;5120002;28;20048;-79
2023/09/17 13:16:20;;;;;;;20.23;18.23;;;;;;;;;;5118459;28;20051;-79
2023/09/17 13:18:46;;;;;;;18.20;15.98;;;;;;;;;;5102563;28;20047;-79
2023/09/17 13:21:13;;;;;;;19.48;16.27;;;;;;;;;;5120037;27;20509;-79
2023/09/17 13:23:40;;;;;;;18.92;16.90;;;;;;;;;;5140068;27;20080;-80
2023/09/17 13:26:07;;;;;;;19.85;17.15;;;;;;;;;;5118101;27;20044;-80
2023/09/17 13:28:34;;;;;;;17.98;16.08;;;;;;;;;;5119265;28;20043;-79
2023/09/17 13:31:01;;;;;;;19.60;15.70;;;;;;;;;;5111906;28;20048;-80
2023/09/17 13:33:27;;;;;;;17.20;15.40;;;;;;;;;;5103132;28;20499;-79
2023/09/17 13:35:54;;;;;;;19.38;16.35;;;;;;;;;;5107094;28;20072;-79
2023/09/17 13:38:21;;;;;;;18.48;15.57;;;;;;;;;;5112879;28;20060;-79
2023/09/17 13:40:47;;;;;;;17.02;15.20;;;;;;;;;;5098264;28;20050;-80
2023/09/17 13:43:14;;;;;;;18.10;15.18;;;;;;;;;;5099623;28;20094;-79
2023/09/17 13:46:03;;;;;;;18.15;14.25;;;;;;;;;;5107104;28;20093;-79
2023/09/17 13:48:30;;;;;;;15.93;13.50;;;;;;;;;;5096651;28;20040;-79
2023/09/17 13:50:56;;;;;;;15.98;13.88;;;;;;;;;;5095001;28;20032;-79
2023/09/17 13:53:22;;;;;;;18.40;14.13;;;;;;;;;;5102329;28;20428;-79
2023/09/17 13:55:48;;;;;;;16.42;13.82;;;;;;;;;;5130471;27;20043;-79
2023/09/17 13:58:15;;;;;;;14.60;13.10;;;;;;;;;;5116596;28;20123;-79
2023/09/17 14:00:41;;;;;;;16.45;14.23;;;;;;;;;;5116249;28;20044;-79
2023/09/17 14:03:14;;;;;;;15.60;13.73;;;;;;;;;;5115894;28;20451;-79
2023/09/17 14:05:41;;;;;;;16.10;14.40;;;;;;;;;;5116057;28;20044;-79
2023/09/17 14:08:07;;;;;;;16.05;13.63;;;;;;;;;;5107059;28;20052;-79
2023/09/17 14:10:33;;;;;;;14.52;12.55;;;;;;;;;;5095402;28;20036;-79
2023/09/17 14:13:01;;;;;;;15.93;13.90;;;;;;;;;;5096266;28;20043;-79
2023/09/17 14:15:27;;;;;;;16.80;13.50;;;;;;;;;;5096171;28;20059;-79
2023/09/17 14:17:53;;;;;;;16.10;13.73;;;;;;;;;;5113513;28;20122;-79